sensor_id;sensor_type;location;lat;lon;timestamp;temperature;humidity
36498;DHT22;22513;51.222;6.480;2022-10-17T00:02:21;14.70;99.90
36498;DHT22;22513;51.222;6.480;2022-10-17T00:04:47;14.70;99.90
36498;DHT22;22513;51.222;6.480;2022-10-17T00:07:13;14.70;99.90
36498;DHT22;22513;51.222;6.480;2022-10-17T00:09:42;14.70;99.90
36498;DHT22;22513;51.222;6.480;2022-10-17T00:12:08;14.70;99.90
36498;DHT22;22513;51.222;6.480;2022-10-17T00:14:33;14.70;99.90
36498;DHT22;22513;51.222;6.480;2022-10-17T00:17:00;14.70;99.90
36498;DHT22;22513;51.222;6.480;2022-10-17T00:19:25;14.70;99.90
36498;DHT22;22513;51.222;6.480;2022-10-17T00:21:51;14.70;99.90
36498;DHT22;22513;51.222;6.480;2022-10-17T00:24:16;14.70;99.90
36498;DHT22;22513;51.222;6.480;2022-10-17T00:26:42;14.80;99.90
36498;DHT22;22513;51.222;6.480;2022-10-17T00:29:08;14.70;99.90
36498;DHT22;22513;51.222;6.480;2022-10-17T00:31:33;14.70;99.90
36498;DHT22;22513;51.222;6.480;2022-10-17T00:34:00;14.70;99.90
36498;DHT22;22513;51.222;6.480;2022-10-17T00:36:25;14.70;99.90
36498;DHT22;22513;51.222;6.480;2022-10-17T00:38:56;14.70;99.90
36498;DHT22;22513;51.222;6.480;2022-10-17T00:41:27;14.70;99.90
36498;DHT22;22513;51.222;6.480;2022-10-17T00:44:03;14.70;99.90
36498;DHT22;22513;51.222;6.480;2022-10-17T00:46:37;14.70;99.90
36498;DHT22;22513;51.222;6.480;2022-10-17T00:49:08;14.60;99.90
36498;DHT22;22513;51.222;6.480;2022-10-17T00:51:47;14.70;99.90
36498;DHT22;22513;51.222;6.480;2022-10-17T00:54:16;14.60;99.90
36498;DHT22;22513;51.222;6.480;2022-10-17T00:56:43;14.60;99.90
36498;DHT22;22513;51.222;6.480;2022-10-17T00:59:12;14.60;99.90
36498;DHT22;22513;51.222;6.480;2022-10-17T01:01:44;14.60;99.90
36498;DHT22;22513;51.222;6.480;2022-10-17T01:04:13;14.60;99.90
36498;DHT22;22513;51.222;6.480;2022-10-17T01:06:38;14.60;99.90
36498;DHT22;22513;51.222;6.480;2022-10-17T01:09:04;14.50;99.90
36498;DHT22;22513;51.222;6.480;2022-10-17T01:14:30;14.50;99.90
36498;DHT22;22513;51.222;6.480;2022-10-17T01:17:05;14.50;99.90
36498;DHT22;22513;51.222;6.480;2022-10-17T01:27:50;14.40;99.90
36498;DHT22;22513;51.222;6.480;2022-10-17T01:33:25;14.30;99.90
36498;DHT22;22513;51.222;6.480;2022-10-17T01:36:09;14.30;99.90
36498;DHT22;22513;51.222;6.480;2022-10-17T01:38:45;14.30;99.90
36498;DHT22;22513;51.222;6.480;2022-10-17T01:41:24;14.30;99.90
36498;DHT22;22513;51.222;6.480;2022-10-17T01:43:57;14.30;99.90
36498;DHT22;22513;51.222;6.480;2022-10-17T01:49:00;14.20;99.90
36498;DHT22;22513;51.222;6.480;2022-10-17T01:51:32;14.20;99.90
36498;DHT22;22513;51.222;6.480;2022-10-17T01:56:47;14.20;99.90
36498;DHT22;22513;51.222;6.480;2022-10-17T01:59:20;14.20;99.90
36498;DHT22;22513;51.222;6.480;2022-10-17T02:01:49;14.20;99.90
36498;DHT22;22513;51.222;6.480;2022-10-17T02:04:15;14.20;99.90
36498;DHT22;22513;51.222;6.480;2022-10-17T02:06:41;14.20;99.90
36498;DHT22;22513;51.222;6.480;2022-10-17T02:09:16;14.20;99.90
36498;DHT22;22513;51.222;6.480;2022-10-17T02:11:46;14.10;99.90
36498;DHT22;22513;51.222;6.480;2022-10-17T02:14:20;14.10;99.90
36498;DHT22;22513;51.222;6.480;2022-10-17T02:30:39;14.00;99.90
36498;DHT22;22513;51.222;6.480;2022-10-17T02:33:10;14.00;99.90
36498;DHT22;22513;51.222;6.480;2022-10-17T02:35:40;14.00;99.90
36498;DHT22;22513;51.222;6.480;2022-10-17T02:38:08;14.00;99.90
36498;DHT22;22513;51.222;6.480;2022-10-17T02:40:36;13.90;99.90
36498;DHT22;22513;51.222;6.480;2022-10-17T02:43:04;13.90;99.90
36498;DHT22;22513;51.222;6.480;2022-10-17T02:45:30;13.80;99.90
36498;DHT22;22513;51.222;6.480;2022-10-17T02:48:37;13.80;99.90
36498;DHT22;22513;51.222;6.480;2022-10-17T02:51:03;13.80;99.90
36498;DHT22;22513;51.222;6.480;2022-10-17T02:53:38;13.80;99.90
36498;DHT22;22513;51.222;6.480;2022-10-17T02:56:13;13.70;99.90
36498;DHT22;22513;51.222;6.480;2022-10-17T02:58:42;13.70;99.90
36498;DHT22;22513;51.222;6.480;2022-10-17T03:01:11;13.70;99.90
36498;DHT22;22513;51.222;6.480;2022-10-17T03:03:38;13.70;99.90
36498;DHT22;22513;51.222;6.480;2022-10-17T03:06:03;13.70;99.90
36498;DHT22;22513;51.222;6.480;2022-10-17T03:08:29;13.70;99.90
36498;DHT22;22513;51.222;6.480;2022-10-17T03:10:55;13.70;99.90
36498;DHT22;22513;51.222;6.480;2022-10-17T03:13:20;13.80;99.90
36498;DHT22;22513;51.222;6.480;2022-10-17T03:15:46;13.80;99.90
36498;DHT22;22513;51.222;6.480;2022-10-17T03:18:11;13.90;99.90
36498;DHT22;22513;51.222;6.480;2022-10-17T03:20:37;13.90;99.90
36498;DHT22;22513;51.222;6.480;2022-10-17T03:23:03;13.90;99.90
36498;DHT22;22513;51.222;6.480;2022-10-17T03:25:28;13.90;99.90
36498;DHT22;22513;51.222;6.480;2022-10-17T03:27:56;13.90;99.90
36498;DHT22;22513;51.222;6.480;2022-10-17T03:30:22;13.90;99.90
36498;DHT22;22513;51.222;6.480;2022-10-17T03:32:47;13.90;99.90
36498;DHT22;22513;51.222;6.480;2022-10-17T03:35:13;13.90;99.90
36498;DHT22;22513;51.222;6.480;2022-10-17T03:37:38;13.90;99.90
36498;DHT22;22513;51.222;6.480;2022-10-17T03:40:04;13.80;99.90
36498;DHT22;22513;51.222;6.480;2022-10-17T03:42:30;13.90;99.90
36498;DHT22;22513;51.222;6.480;2022-10-17T03:44:56;13.90;99.90
36498;DHT22;22513;51.222;6.480;2022-10-17T03:47:21;13.90;99.90
36498;DHT22;22513;51.222;6.480;2022-10-17T03:49:47;13.90;99.90
36498;DHT22;22513;51.222;6.480;2022-10-17T03:52:13;13.90;99.90
36498;DHT22;22513;51.222;6.480;2022-10-17T03:54:39;13.90;99.90
36498;DHT22;22513;51.222;6.480;2022-10-17T03:57:08;14.00;99.90
36498;DHT22;22513;51.222;6.480;2022-10-17T03:59:33;13.90;99.90
36498;DHT22;22513;51.222;6.480;2022-10-17T04:01:59;13.90;99.90
36498;DHT22;22513;51.222;6.480;2022-10-17T04:04:24;13.90;99.90
36498;DHT22;22513;51.222;6.480;2022-10-17T04:06:50;13.90;99.90
36498;DHT22;22513;51.222;6.480;2022-10-17T04:09:15;13.90;99.90
36498;DHT22;22513;51.222;6.480;2022-10-17T04:11:41;14.00;99.90
36498;DHT22;22513;51.222;6.480;2022-10-17T04:14:08;14.00;99.90
36498;DHT22;22513;51.222;6.480;2022-10-17T04:16:33;14.00;99.90
36498;DHT22;22513;51.222;6.480;2022-10-17T04:18:59;14.00;99.90
36498;DHT22;22513;51.222;6.480;2022-10-17T04:21:26;14.10;99.90
36498;DHT22;22513;51.222;6.480;2022-10-17T04:23:57;14.20;99.90
36498;DHT22;22513;51.222;6.480;2022-10-17T04:26:24;14.20;99.90
36498;DHT22;22513;51.222;6.480;2022-10-17T04:28:50;14.20;99.90
36498;DHT22;22513;51.222;6.480;2022-10-17T04:31:16;14.30;99.90
36498;DHT22;22513;51.222;6.480;2022-10-17T04:33:43;14.30;99.90
36498;DHT22;22513;51.222;6.480;2022-10-17T04:36:12;14.30;99.90
36498;DHT22;22513;51.222;6.480;2022-10-17T04:38:39;14.40;99.90
36498;DHT22;22513;51.222;6.480;2022-10-17T04:41:06;14.40;99.90
36498;DHT22;22513;51.222;6.480;2022-10-17T04:43:34;14.40;99.90
36498;DHT22;22513;51.222;6.480;2022-10-17T04:46:02;14.40;99.90
36498;DHT22;22513;51.222;6.480;2022-10-17T04:48:28;14.40;99.90
36498;DHT22;22513;51.222;6.480;2022-10-17T04:50:56;14.40;99.90
36498;DHT22;22513;51.222;6.480;2022-10-17T04:53:22;14.40;99.90
36498;DHT22;22513;51.222;6.480;2022-10-17T04:55:48;14.40;99.90
36498;DHT22;22513;51.222;6.480;2022-10-17T04:58:14;14.50;99.90
36498;DHT22;22513;51.222;6.480;2022-10-17T05:00:40;14.50;99.90
36498;DHT22;22513;51.222;6.480;2022-10-17T05:03:05;14.50;99.90
36498;DHT22;22513;51.222;6.480;2022-10-17T05:05:31;14.50;99.90
36498;DHT22;22513;51.222;6.480;2022-10-17T05:07:56;14.50;99.90
36498;DHT22;22513;51.222;6.480;2022-10-17T05:10:22;14.60;99.90
36498;DHT22;22513;51.222;6.480;2022-10-17T05:12:49;14.60;99.90
36498;DHT22;22513;51.222;6.480;2022-10-17T05:15:15;14.60;99.90
36498;DHT22;22513;51.222;6.480;2022-10-17T05:17:41;14.50;99.90
36498;DHT22;22513;51.222;6.480;2022-10-17T05:20:07;14.50;99.90
36498;DHT22;22513;51.222;6.480;2022-10-17T05:22:33;14.50;99.90
36498;DHT22;22513;51.222;6.480;2022-10-17T05:24:59;14.50;99.90
36498;DHT22;22513;51.222;6.480;2022-10-17T05:27:24;14.50;99.90
36498;DHT22;22513;51.222;6.480;2022-10-17T05:29:50;14.50;99.90
36498;DHT22;22513;51.222;6.480;2022-10-17T05:32:16;14.60;99.90
36498;DHT22;22513;51.222;6.480;2022-10-17T05:34:41;14.50;99.90
36498;DHT22;22513;51.222;6.480;2022-10-17T05:37:07;14.50;99.90
36498;DHT22;22513;51.222;6.480;2022-10-17T05:39:33;14.50;99.90
36498;DHT22;22513;51.222;6.480;2022-10-17T05:41:58;14.50;99.90
36498;DHT22;22513;51.222;6.480;2022-10-17T05:44:24;14.60;99.90
36498;DHT22;22513;51.222;6.480;2022-10-17T05:46:50;14.50;99.90
36498;DHT22;22513;51.222;6.480;2022-10-17T05:49:16;14.50;99.90
36498;DHT22;22513;51.222;6.480;2022-10-17T05:51:44;14.50;99.90
36498;DHT22;22513;51.222;6.480;2022-10-17T05:54:10;14.50;99.90
36498;DHT22;22513;51.222;6.480;2022-10-17T05:56:36;14.60;99.90
36498;DHT22;22513;51.222;6.480;2022-10-17T05:59:01;14.50;99.90
36498;DHT22;22513;51.222;6.480;2022-10-17T06:01:27;14.50;99.90
36498;DHT22;22513;51.222;6.480;2022-10-17T06:03:53;14.50;99.90
36498;DHT22;22513;51.222;6.480;2022-10-17T06:06:19;14.60;99.90
36498;DHT22;22513;51.222;6.480;2022-10-17T06:08:44;14.50;99.90
36498;DHT22;22513;51.222;6.480;2022-10-17T06:11:11;14.60;99.90
36498;DHT22;22513;51.222;6.480;2022-10-17T06:13:38;14.60;99.90
36498;DHT22;22513;51.222;6.480;2022-10-17T06:16:04;14.50;99.90
36498;DHT22;22513;51.222;6.480;2022-10-17T06:18:30;14.60;99.90
36498;DHT22;22513;51.222;6.480;2022-10-17T06:21:06;14.60;99.90
36498;DHT22;22513;51.222;6.480;2022-10-17T06:23:32;14.60;99.90
36498;DHT22;22513;51.222;6.480;2022-10-17T06:25:59;14.60;99.90
36498;DHT22;22513;51.222;6.480;2022-10-17T06:28:25;14.70;99.90
36498;DHT22;22513;51.222;6.480;2022-10-17T06:30:51;14.70;99.90
36498;DHT22;22513;51.222;6.480;2022-10-17T06:33:16;14.80;99.90
36498;DHT22;22513;51.222;6.480;2022-10-17T06:35:42;14.80;99.90
36498;DHT22;22513;51.222;6.480;2022-10-17T06:38:08;14.90;99.90
36498;DHT22;22513;51.222;6.480;2022-10-17T06:40:34;14.90;99.90
36498;DHT22;22513;51.222;6.480;2022-10-17T06:43:00;15.00;99.90
36498;DHT22;22513;51.222;6.480;2022-10-17T06:45:25;15.10;99.90
36498;DHT22;22513;51.222;6.480;2022-10-17T06:47:51;15.10;99.90
36498;DHT22;22513;51.222;6.480;2022-10-17T06:50:17;15.10;99.90
36498;DHT22;22513;51.222;6.480;2022-10-17T06:52:42;15.20;99.90
36498;DHT22;22513;51.222;6.480;2022-10-17T06:55:08;15.20;99.90
36498;DHT22;22513;51.222;6.480;2022-10-17T06:57:34;15.30;99.90
36498;DHT22;22513;51.222;6.480;2022-10-17T07:00:00;15.50;99.90
36498;DHT22;22513;51.222;6.480;2022-10-17T07:02:25;15.70;99.90
36498;DHT22;22513;51.222;6.480;2022-10-17T07:04:51;16.20;99.90
36498;DHT22;22513;51.222;6.480;2022-10-17T07:07:16;16.60;99.90
36498;DHT22;22513;51.222;6.480;2022-10-17T07:09:42;17.10;99.90
36498;DHT22;22513;51.222;6.480;2022-10-17T07:12:08;17.40;99.90
36498;DHT22;22513;51.222;6.480;2022-10-17T07:14:34;17.40;99.90
36498;DHT22;22513;51.222;6.480;2022-10-17T07:17:00;17.30;99.90
36498;DHT22;22513;51.222;6.480;2022-10-17T07:19:26;17.20;99.90
36498;DHT22;22513;51.222;6.480;2022-10-17T07:21:53;17.20;99.90
36498;DHT22;22513;51.222;6.480;2022-10-17T07:24:18;17.10;99.90
36498;DHT22;22513;51.222;6.480;2022-10-17T07:26:44;17.00;99.90
36498;DHT22;22513;51.222;6.480;2022-10-17T07:29:10;17.00;99.90
36498;DHT22;22513;51.222;6.480;2022-10-17T07:31:36;17.00;99.90
36498;DHT22;22513;51.222;6.480;2022-10-17T07:34:01;17.00;99.90
36498;DHT22;22513;51.222;6.480;2022-10-17T07:36:27;17.00;99.90
36498;DHT22;22513;51.222;6.480;2022-10-17T07:38:53;17.10;99.90
36498;DHT22;22513;51.222;6.480;2022-10-17T07:41:19;17.10;99.90
36498;DHT22;22513;51.222;6.480;2022-10-17T07:43:44;17.10;99.90
36498;DHT22;22513;51.222;6.480;2022-10-17T07:46:10;17.20;99.90
36498;DHT22;22513;51.222;6.480;2022-10-17T07:48:37;17.30;99.90
36498;DHT22;22513;51.222;6.480;2022-10-17T07:51:08;17.40;99.90
36498;DHT22;22513;51.222;6.480;2022-10-17T07:53:36;17.50;99.90
36498;DHT22;22513;51.222;6.480;2022-10-17T07:56:06;17.60;99.90
36498;DHT22;22513;51.222;6.480;2022-10-17T07:58:32;17.60;99.90
36498;DHT22;22513;51.222;6.480;2022-10-17T08:01:02;17.70;99.90
36498;DHT22;22513;51.222;6.480;2022-10-17T08:03:28;17.80;99.90
36498;DHT22;22513;51.222;6.480;2022-10-17T08:05:58;17.80;99.90
36498;DHT22;22513;51.222;6.480;2022-10-17T08:08:23;17.90;99.90
36498;DHT22;22513;51.222;6.480;2022-10-17T08:10:49;18.00;99.90
36498;DHT22;22513;51.222;6.480;2022-10-17T08:13:15;18.00;99.90
36498;DHT22;22513;51.222;6.480;2022-10-17T08:15:40;18.10;99.90
36498;DHT22;22513;51.222;6.480;2022-10-17T08:18:06;18.20;99.90
36498;DHT22;22513;51.222;6.480;2022-10-17T08:20:32;18.20;99.90
36498;DHT22;22513;51.222;6.480;2022-10-17T08:22:58;18.20;99.90
36498;DHT22;22513;51.222;6.480;2022-10-17T08:25:24;18.30;99.90
36498;DHT22;22513;51.222;6.480;2022-10-17T08:27:50;18.40;99.90
36498;DHT22;22513;51.222;6.480;2022-10-17T08:30:16;18.50;99.90
36498;DHT22;22513;51.222;6.480;2022-10-17T08:32:41;18.50;99.90
36498;DHT22;22513;51.222;6.480;2022-10-17T08:35:08;18.60;99.90
36498;DHT22;22513;51.222;6.480;2022-10-17T08:37:34;18.60;99.90
36498;DHT22;22513;51.222;6.480;2022-10-17T08:40:00;18.80;99.90
36498;DHT22;22513;51.222;6.480;2022-10-17T08:45:46;19.30;99.90
36498;DHT22;22513;51.222;6.480;2022-10-17T08:48:16;19.60;99.90
36498;DHT22;22513;51.222;6.480;2022-10-17T08:50:44;19.80;99.90
36498;DHT22;22513;51.222;6.480;2022-10-17T08:53:18;19.90;99.90
36498;DHT22;22513;51.222;6.480;2022-10-17T08:55:47;20.10;99.90
36498;DHT22;22513;51.222;6.480;2022-10-17T08:58:26;20.20;99.90
36498;DHT22;22513;51.222;6.480;2022-10-17T09:06:49;20.90;99.90
36498;DHT22;22513;51.222;6.480;2022-10-17T09:12:04;21.20;99.90
36498;DHT22;22513;51.222;6.480;2022-10-17T09:17:29;21.30;99.90
36498;DHT22;22513;51.222;6.480;2022-10-17T09:20:08;21.30;99.90
36498;DHT22;22513;51.222;6.480;2022-10-17T09:25:17;21.40;99.90
36498;DHT22;22513;51.222;6.480;2022-10-17T09:27:53;21.50;99.90
36498;DHT22;22513;51.222;6.480;2022-10-17T09:30:35;21.50;99.90
36498;DHT22;22513;51.222;6.480;2022-10-17T09:35:38;21.60;99.90
36498;DHT22;22513;51.222;6.480;2022-10-17T09:38:18;21.60;99.90
36498;DHT22;22513;51.222;6.480;2022-10-17T09:40:49;21.50;99.90
36498;DHT22;22513;51.222;6.480;2022-10-17T09:43:15;21.50;99.90
36498;DHT22;22513;51.222;6.480;2022-10-17T09:45:53;21.40;99.90
36498;DHT22;22513;51.222;6.480;2022-10-17T09:48:29;21.40;99.90
36498;DHT22;22513;51.222;6.480;2022-10-17T09:50:56;21.30;99.90
36498;DHT22;22513;51.222;6.480;2022-10-17T09:53:46;21.20;99.90
36498;DHT22;22513;51.222;6.480;2022-10-17T09:56:15;21.20;99.90
36498;DHT22;22513;51.222;6.480;2022-10-17T10:01:22;21.00;99.90
36498;DHT22;22513;51.222;6.480;2022-10-17T10:06:33;20.70;99.90
36498;DHT22;22513;51.222;6.480;2022-10-17T10:08:59;20.70;99.90
36498;DHT22;22513;51.222;6.480;2022-10-17T10:11:46;20.60;99.90
36498;DHT22;22513;51.222;6.480;2022-10-17T10:14:23;20.50;99.90
36498;DHT22;22513;51.222;6.480;2022-10-17T10:16:52;20.60;99.90
36498;DHT22;22513;51.222;6.480;2022-10-17T10:21:59;20.90;99.90
36498;DHT22;22513;51.222;6.480;2022-10-17T10:32:33;21.40;99.90
36498;DHT22;22513;51.222;6.480;2022-10-17T10:35:18;21.60;99.90
36498;DHT22;22513;51.222;6.480;2022-10-17T10:38:13;21.80;99.90
36498;DHT22;22513;51.222;6.480;2022-10-17T10:40:53;22.00;99.90
36498;DHT22;22513;51.222;6.480;2022-10-17T10:46:04;22.20;99.90
36498;DHT22;22513;51.222;6.480;2022-10-17T10:48:36;22.30;99.90
36498;DHT22;22513;51.222;6.480;2022-10-17T10:51:21;22.20;99.90
36498;DHT22;22513;51.222;6.480;2022-10-17T10:54:11;22.00;99.90
36498;DHT22;22513;51.222;6.480;2022-10-17T11:20:59;21.20;99.90
36498;DHT22;22513;51.222;6.480;2022-10-17T11:23:42;21.20;99.90
36498;DHT22;22513;51.222;6.480;2022-10-17T11:26:18;21.30;99.90
36498;DHT22;22513;51.222;6.480;2022-10-17T11:29:02;21.40;99.90
36498;DHT22;22513;51.222;6.480;2022-10-17T11:31:35;21.50;99.90
36498;DHT22;22513;51.222;6.480;2022-10-17T11:46:24;22.40;99.90
36498;DHT22;22513;51.222;6.480;2022-10-17T11:49:24;22.30;99.90
36498;DHT22;22513;51.222;6.480;2022-10-17T11:55:20;22.20;99.90
36498;DHT22;22513;51.222;6.480;2022-10-17T12:00:47;21.90;99.90
36498;DHT22;22513;51.222;6.480;2022-10-17T12:10:22;21.40;99.90
36498;DHT22;22513;51.222;6.480;2022-10-17T12:12:49;21.20;99.90
36498;DHT22;22513;51.222;6.480;2022-10-17T12:18:00;21.10;99.90
36498;DHT22;22513;51.222;6.480;2022-10-17T12:20:33;21.00;99.90
36498;DHT22;22513;51.222;6.480;2022-10-17T12:25:31;20.70;99.90
36498;DHT22;22513;51.222;6.480;2022-10-17T12:30:33;20.80;99.90
36498;DHT22;22513;51.222;6.480;2022-10-17T12:33:13;20.80;99.90
36498;DHT22;22513;51.222;6.480;2022-10-17T12:35:43;20.90;99.90
36498;DHT22;22513;51.222;6.480;2022-10-17T12:38:24;20.90;99.90
36498;DHT22;22513;51.222;6.480;2022-10-17T12:40:52;20.90;99.90
36498;DHT22;22513;51.222;6.480;2022-10-17T12:56:16;21.20;99.90
36498;DHT22;22513;51.222;6.480;2022-10-17T12:58:47;21.30;99.90
36498;DHT22;22513;51.222;6.480;2022-10-17T13:01:33;21.30;99.90
36498;DHT22;22513;51.222;6.480;2022-10-17T13:04:01;21.20;99.90
36498;DHT22;22513;51.222;6.480;2022-10-17T13:06:31;21.10;99.90
36498;DHT22;22513;51.222;6.480;2022-10-17T13:09:07;21.00;99.90
36498;DHT22;22513;51.222;6.480;2022-10-17T13:11:36;20.90;99.90
36498;DHT22;22513;51.222;6.480;2022-10-17T13:14:12;20.90;99.90
36498;DHT22;22513;51.222;6.480;2022-10-17T13:19:21;20.80;99.90
36498;DHT22;22513;51.222;6.480;2022-10-17T13:22:02;20.80;99.90
36498;DHT22;22513;51.222;6.480;2022-10-17T13:24:30;20.80;99.90
36498;DHT22;22513;51.222;6.480;2022-10-17T13:26:57;20.80;99.90
36498;DHT22;22513;51.222;6.480;2022-10-17T13:29:23;20.80;99.90
36498;DHT22;22513;51.222;6.480;2022-10-17T13:31:53;20.70;99.90
36498;DHT22;22513;51.222;6.480;2022-10-17T13:34:24;20.70;99.90
36498;DHT22;22513;51.222;6.480;2022-10-17T13:36:58;20.70;99.90
36498;DHT22;22513;51.222;6.480;2022-10-17T13:39:27;20.70;99.90
36498;DHT22;22513;51.222;6.480;2022-10-17T13:41:54;20.70;99.90
36498;DHT22;22513;51.222;6.480;2022-10-17T13:44:24;20.70;99.90
36498;DHT22;22513;51.222;6.480;2022-10-17T13:46:50;20.70;99.90
36498;DHT22;22513;51.222;6.480;2022-10-17T13:51:47;20.90;99.90
36498;DHT22;22513;51.222;6.480;2022-10-17T13:54:27;20.90;99.90
36498;DHT22;22513;51.222;6.480;2022-10-17T13:56:55;21.00;99.90
36498;DHT22;22513;51.222;6.480;2022-10-17T13:59:25;21.00;99.90
36498;DHT22;22513;51.222;6.480;2022-10-17T14:01:52;20.90;99.90
36498;DHT22;22513;51.222;6.480;2022-10-17T14:04:19;20.90;99.90
36498;DHT22;22513;51.222;6.480;2022-10-17T14:06:45;20.80;99.90
36498;DHT22;22513;51.222;6.480;2022-10-17T14:09:24;20.70;99.90
36498;DHT22;22513;51.222;6.480;2022-10-17T14:12:10;20.70;99.90
36498;DHT22;22513;51.222;6.480;2022-10-17T14:14:38;20.70;99.90
36498;DHT22;22513;51.222;6.480;2022-10-17T14:17:27;20.60;99.90
36498;DHT22;22513;51.222;6.480;2022-10-17T14:19:58;20.70;99.90
36498;DHT22;22513;51.222;6.480;2022-10-17T14:22:29;20.70;99.90
36498;DHT22;22513;51.222;6.480;2022-10-17T14:24:57;20.80;99.90
36498;DHT22;22513;51.222;6.480;2022-10-17T14:27:36;20.80;99.90
36498;DHT22;22513;51.222;6.480;2022-10-17T14:32:57;20.90;99.90
36498;DHT22;22513;51.222;6.480;2022-10-17T14:35:24;20.90;99.90
36498;DHT22;22513;51.222;6.480;2022-10-17T14:37:51;20.90;99.90
36498;DHT22;22513;51.222;6.480;2022-10-17T14:40:23;20.80;99.90
36498;DHT22;22513;51.222;6.480;2022-10-17T14:42:55;20.70;99.90
36498;DHT22;22513;51.222;6.480;2022-10-17T14:47:55;20.60;99.90
36498;DHT22;22513;51.222;6.480;2022-10-17T14:50:26;20.60;99.90
36498;DHT22;22513;51.222;6.480;2022-10-17T14:55:33;20.60;99.90
36498;DHT22;22513;51.222;6.480;2022-10-17T14:57:58;20.60;99.90
36498;DHT22;22513;51.222;6.480;2022-10-17T15:00:24;20.60;99.90
36498;DHT22;22513;51.222;6.480;2022-10-17T15:02:51;20.50;99.90
36498;DHT22;22513;51.222;6.480;2022-10-17T15:05:17;20.40;99.90
36498;DHT22;22513;51.222;6.480;2022-10-17T15:07:44;20.30;99.90
36498;DHT22;22513;51.222;6.480;2022-10-17T15:10:32;20.20;99.90
36498;DHT22;22513;51.222;6.480;2022-10-17T15:12:58;20.10;99.90
36498;DHT22;22513;51.222;6.480;2022-10-17T15:15:26;19.90;99.90
36498;DHT22;22513;51.222;6.480;2022-10-17T15:17:51;19.70;99.90
36498;DHT22;22513;51.222;6.480;2022-10-17T15:20:17;19.60;99.90
36498;DHT22;22513;51.222;6.480;2022-10-17T15:22:44;19.50;99.90
36498;DHT22;22513;51.222;6.480;2022-10-17T15:25:10;19.40;99.90
36498;DHT22;22513;51.222;6.480;2022-10-17T15:27:36;19.30;99.90
36498;DHT22;22513;51.222;6.480;2022-10-17T15:30:01;19.20;99.90
36498;DHT22;22513;51.222;6.480;2022-10-17T15:32:27;19.10;99.90
36498;DHT22;22513;51.222;6.480;2022-10-17T15:34:52;19.10;99.90
36498;DHT22;22513;51.222;6.480;2022-10-17T15:37:23;19.10;99.90
36498;DHT22;22513;51.222;6.480;2022-10-17T15:39:53;19.00;99.90
36498;DHT22;22513;51.222;6.480;2022-10-17T15:42:25;19.00;99.90
36498;DHT22;22513;51.222;6.480;2022-10-17T15:44:51;19.00;99.90
36498;DHT22;22513;51.222;6.480;2022-10-17T15:47:28;18.90;99.90
36498;DHT22;22513;51.222;6.480;2022-10-17T15:49:55;18.90;99.90
36498;DHT22;22513;51.222;6.480;2022-10-17T15:52:22;18.90;99.90
36498;DHT22;22513;51.222;6.480;2022-10-17T15:54:47;18.80;99.90
36498;DHT22;22513;51.222;6.480;2022-10-17T15:57:19;18.70;99.90
36498;DHT22;22513;51.222;6.480;2022-10-17T15:59:46;18.60;99.90
36498;DHT22;22513;51.222;6.480;2022-10-17T16:02:13;18.50;99.90
36498;DHT22;22513;51.222;6.480;2022-10-17T16:04:39;18.50;99.90
36498;DHT22;22513;51.222;6.480;2022-10-17T16:07:06;18.50;99.90
36498;DHT22;22513;51.222;6.480;2022-10-17T16:09:32;18.40;99.90
36498;DHT22;22513;51.222;6.480;2022-10-17T16:11:59;18.30;99.90
36498;DHT22;22513;51.222;6.480;2022-10-17T16:14:25;18.20;99.90
36498;DHT22;22513;51.222;6.480;2022-10-17T16:16:51;18.10;99.90
36498;DHT22;22513;51.222;6.480;2022-10-17T16:19:16;18.00;99.90
36498;DHT22;22513;51.222;6.480;2022-10-17T16:21:42;17.90;99.90
36498;DHT22;22513;51.222;6.480;2022-10-17T16:24:11;17.80;99.90
36498;DHT22;22513;51.222;6.480;2022-10-17T16:26:38;17.70;99.90
36498;DHT22;22513;51.222;6.480;2022-10-17T16:29:03;17.70;99.90
36498;DHT22;22513;51.222;6.480;2022-10-17T16:31:32;17.60;99.90
36498;DHT22;22513;51.222;6.480;2022-10-17T16:33:59;17.50;99.90
36498;DHT22;22513;51.222;6.480;2022-10-17T16:36:25;17.50;99.90
36498;DHT22;22513;51.222;6.480;2022-10-17T16:38:50;17.40;99.90
36498;DHT22;22513;51.222;6.480;2022-10-17T16:43:50;17.30;99.90
36498;DHT22;22513;51.222;6.480;2022-10-17T16:46:16;17.30;99.90
36498;DHT22;22513;51.222;6.480;2022-10-17T16:48:43;17.20;99.90
36498;DHT22;22513;51.222;6.480;2022-10-17T16:51:10;17.20;99.90
36498;DHT22;22513;51.222;6.480;2022-10-17T16:53:36;17.10;99.90
36498;DHT22;22513;51.222;6.480;2022-10-17T16:56:12;17.10;99.90
36498;DHT22;22513;51.222;6.480;2022-10-17T16:58:39;17.00;99.90
36498;DHT22;22513;51.222;6.480;2022-10-17T17:01:08;17.00;99.90
36498;DHT22;22513;51.222;6.480;2022-10-17T17:03:38;17.00;99.90
36498;DHT22;22513;51.222;6.480;2022-10-17T17:06:05;16.90;99.90
36498;DHT22;22513;51.222;6.480;2022-10-17T17:08:32;16.90;99.90
36498;DHT22;22513;51.222;6.480;2022-10-17T17:10:58;16.90;99.90
36498;DHT22;22513;51.222;6.480;2022-10-17T17:13:24;16.80;99.90
36498;DHT22;22513;51.222;6.480;2022-10-17T17:15:50;16.80;99.90
36498;DHT22;22513;51.222;6.480;2022-10-17T17:18:19;16.80;99.90
36498;DHT22;22513;51.222;6.480;2022-10-17T17:20:45;16.80;99.90
36498;DHT22;22513;51.222;6.480;2022-10-17T17:23:12;16.70;99.90
36498;DHT22;22513;51.222;6.480;2022-10-17T17:25:38;16.70;99.90
36498;DHT22;22513;51.222;6.480;2022-10-17T17:28:05;16.70;99.90
36498;DHT22;22513;51.222;6.480;2022-10-17T17:30:34;16.70;99.90
36498;DHT22;22513;51.222;6.480;2022-10-17T17:33:00;16.70;99.90
36498;DHT22;22513;51.222;6.480;2022-10-17T17:35:26;16.60;99.90
36498;DHT22;22513;51.222;6.480;2022-10-17T17:37:52;16.70;99.90
36498;DHT22;22513;51.222;6.480;2022-10-17T17:40:18;16.70;99.90
36498;DHT22;22513;51.222;6.480;2022-10-17T17:42:43;16.70;99.90
36498;DHT22;22513;51.222;6.480;2022-10-17T17:45:09;16.70;99.90
36498;DHT22;22513;51.222;6.480;2022-10-17T17:47:35;16.70;99.90
36498;DHT22;22513;51.222;6.480;2022-10-17T17:50:00;16.70;99.90
36498;DHT22;22513;51.222;6.480;2022-10-17T17:52:27;16.70;99.90
36498;DHT22;22513;51.222;6.480;2022-10-17T17:54:54;16.70;99.90
36498;DHT22;22513;51.222;6.480;2022-10-17T17:57:20;16.70;99.90
36498;DHT22;22513;51.222;6.480;2022-10-17T17:59:45;16.60;99.90
36498;DHT22;22513;51.222;6.480;2022-10-17T18:02:13;16.70;99.90
36498;DHT22;22513;51.222;6.480;2022-10-17T18:04:38;16.60;99.90
36498;DHT22;22513;51.222;6.480;2022-10-17T18:07:04;16.60;99.90
36498;DHT22;22513;51.222;6.480;2022-10-17T18:09:29;16.60;99.90
36498;DHT22;22513;51.222;6.480;2022-10-17T18:11:55;16.60;99.90
36498;DHT22;22513;51.222;6.480;2022-10-17T18:14:21;16.60;99.90
36498;DHT22;22513;51.222;6.480;2022-10-17T18:16:48;16.50;99.90
36498;DHT22;22513;51.222;6.480;2022-10-17T18:19:14;16.50;99.90